Time;durP1;ratioP1;P1;durP2;ratioP2;P2;SDS_P1;SDS_P2;PMS_P1;PMS_P2;Temp;Humidity;BMP_temperature;BMP_pressure;BME280_temperature;BME280_humidity;BME280_pressure;Samples;Min_cycle;Max_cycle;Signal;HPM_P1;HPM_P2
2023/07/08 00:02:12;;;;;;;11.80;4.63;;;20.50;65.00;;;;;;5033533;28;20037;-76
2023/07/08 00:04:39;;;;;;;9.80;4.72;;;20.50;65.00;;;;;;5036700;28;20017;-76
2023/07/08 00:07:05;;;;;;;9.38;4.80;;;20.50;65.00;;;;;;5040387;28;20025;-74
2023/07/08 00:09:31;;;;;;;14.65;4.80;;;20.50;64.80;;;;;;5039996;28;20401;-76
2023/07/08 00:11:57;;;;;;;9.73;5.20;;;20.50;65.00;;;;;;5041175;28;20013;-76
2023/07/08 00:14:23;;;;;;;13.07;4.90;;;20.50;65.10;;;;;;5041328;28;20032;-75
2023/07/08 00:16:49;;;;;;;18.90;5.28;;;20.50;65.30;;;;;;5042849;28;20031;-76
2023/07/08 00:19:23;;;;;;;12.52;5.10;;;20.50;65.40;;;;;;5046081;28;20071;-76
2023/07/08 00:21:51;;;;;;;10.88;5.03;;;20.50;65.70;;;;;;5041310;28;20033;-75
2023/07/08 00:24:17;;;;;;;10.88;4.65;;;20.40;65.60;;;;;;5048304;28;20021;-76
2023/07/08 00:26:42;;;;;;;10.30;5.30;;;20.50;65.80;;;;;;5040972;28;20458;-75
2023/07/08 00:29:10;;;;;;;15.82;5.25;;;20.50;65.70;;;;;;5049912;28;20477;-75
2023/07/08 00:31:36;;;;;;;14.68;4.93;;;20.40;65.70;;;;;;5043551;28;20033;-75
2023/07/08 00:34:03;;;;;;;10.32;4.35;;;20.40;65.60;;;;;;5042672;28;20033;-76
2023/07/08 00:36:29;;;;;;;9.55;5.00;;;20.40;65.60;;;;;;5040706;28;20063;-76
2023/07/08 00:38:56;;;;;;;8.13;4.95;;;20.40;65.80;;;;;;5026668;28;20552;-75
2023/07/08 00:41:36;;;;;;;11.02;4.82;;;20.40;65.70;;;;;;5042201;28;20039;-75
2023/07/08 00:44:02;;;;;;;;;;;20.40;65.90;;;;;;5039299;28;20030;-75
2023/07/08 00:46:29;;;;;;;9.25;4.53;;;20.40;65.80;;;;;;5046492;28;20124;-75
2023/07/08 00:49:03;;;;;;;11.23;5.32;;;20.40;65.90;;;;;;5040416;28;20029;-75
2023/07/08 00:51:29;;;;;;;14.50;5.28;;;20.40;65.90;;;;;;5040208;28;20039;-75
2023/07/08 00:53:54;;;;;;;13.82;5.18;;;20.40;65.90;;;;;;5039448;28;20017;-75
2023/07/08 00:56:26;;;;;;;9.68;4.75;;;20.40;65.90;;;;;;5042249;28;20041;-76
2023/07/08 00:59:01;;;;;;;10.10;5.13;;;20.40;65.80;;;;;;5037480;28;20433;-76
2023/07/08 01:01:29;;;;;;;10.75;5.28;;;20.40;65.90;;;;;;5042384;28;20060;-77
2023/07/08 01:04:01;;;;;;;10.32;4.78;;;20.40;65.90;;;;;;5044569;28;20022;-76
2023/07/08 01:06:32;;;;;;;11.82;5.32;;;20.40;66.10;;;;;;5041899;28;20029;-76
2023/07/08 01:09:02;;;;;;;10.23;5.32;;;20.40;66.10;;;;;;5025674;28;20029;-76
2023/07/08 01:11:29;;;;;;;13.18;5.53;;;20.40;66.00;;;;;;5039876;28;20049;-76
2023/07/08 01:13:56;;;;;;;9.48;5.10;;;20.40;65.90;;;;;;5043232;28;20556;-76
2023/07/08 01:16:22;;;;;;;10.48;5.40;;;20.40;66.00;;;;;;5042540;28;20040;-75
2023/07/08 01:18:52;;;;;;;9.68;5.28;;;20.40;65.90;;;;;;5042816;28;20095;-76
2023/07/08 01:21:37;;;;;;;11.20;4.78;;;20.40;65.90;;;;;;5049269;28;20032;-75
2023/07/08 01:24:07;;;;;;;14.02;4.75;;;20.40;66.10;;;;;;5062225;28;20016;-76
2023/07/08 01:26:37;;;;;;;10.52;5.18;;;20.40;66.30;;;;;;5060728;28;20389;-76
2023/07/08 01:29:04;;;;;;;9.70;5.20;;;20.40;66.20;;;;;;5064281;28;20090;-76
2023/07/08 01:31:30;;;;;;;8.77;4.85;;;20.40;66.10;;;;;;5044369;28;20040;-77
2023/07/08 01:33:56;;;;;;;11.60;5.07;;;20.40;66.10;;;;;;5063135;28;20017;-76
2023/07/08 01:36:24;;;;;;;16.20;6.05;;;20.40;66.30;;;;;;5059224;28;20053;-76
2023/07/08 01:38:50;;;;;;;14.40;4.68;;;20.30;66.30;;;;;;5046961;28;20032;-75
2023/07/08 01:41:17;;;;;;;9.05;4.85;;;20.40;66.20;;;;;;5063999;28;20081;-76
2023/07/08 01:43:43;;;;;;;10.63;5.13;;;20.30;66.10;;;;;;5061873;28;20488;-76
2023/07/08 01:46:23;;;;;;;11.75;5.05;;;20.40;66.30;;;;;;5059342;28;20013;-75
2023/07/08 01:48:53;;;;;;;12.07;5.57;;;20.40;67.10;;;;;;5064487;28;20027;-75
2023/07/08 01:51:19;;;;;;;11.60;4.85;;;20.30;66.30;;;;;;5064745;28;20532;-76
2023/07/08 01:53:45;;;;;;;12.98;5.75;;;20.30;66.20;;;;;;5059555;28;20123;-76
2023/07/08 01:56:12;;;;;;;9.30;4.80;;;20.30;66.30;;;;;;5056819;28;20063;-76
2023/07/08 01:58:38;;;;;;;11.68;5.78;;;20.30;66.40;;;;;;5056983;28;20067;-76
2023/07/08 02:01:04;;;;;;;9.52;5.00;;;20.30;66.50;;;;;;5061944;28;20060;-76
2023/07/08 02:03:29;;;;;;;9.18;4.82;;;20.30;67.10;;;;;;5057973;28;20028;-76
2023/07/08 02:05:55;;;;;;;8.30;4.75;;;20.30;66.60;;;;;;5057919;28;20465;-76
2023/07/08 02:08:22;;;;;;;9.63;4.35;;;20.30;66.70;;;;;;5066295;28;20070;-76
2023/07/08 02:10:57;;;;;;;10.63;4.90;;;20.30;66.70;;;;;;5062449;28;20025;-76
2023/07/08 02:13:23;;;;;;;11.70;5.00;;;20.30;66.70;;;;;;5054802;28;20390;-76
2023/07/08 02:15:50;;;;;;;10.80;4.88;;;20.30;66.70;;;;;;5058422;28;20025;-76
2023/07/08 02:18:15;;;;;;;10.73;5.55;;;20.30;66.80;;;;;;5060510;28;20079;-76
2023/07/08 02:20:43;;;;;;;10.18;5.47;;;20.30;67.10;;;;;;5054844;28;20472;-75
2023/07/08 02:23:08;;;;;;;11.00;5.60;;;20.30;67.20;;;;;;5045154;28;20028;-75
2023/07/08 02:25:34;;;;;;;10.30;4.75;;;20.30;67.30;;;;;;5044705;28;20026;-76
2023/07/08 02:27:59;;;;;;;11.02;4.88;;;20.30;67.20;;;;;;5039404;28;20060;-75
2023/07/08 02:30:26;;;;;;;10.82;5.45;;;20.30;67.30;;;;;;5038895;28;20033;-76
2023/07/08 02:32:58;;;;;;;17.63;5.75;;;20.30;67.30;;;;;;5037445;28;20465;-77
2023/07/08 02:35:29;;;;;;;11.93;5.68;;;20.30;67.50;;;;;;5035534;28;20085;-77
2023/07/08 02:37:57;;;;;;;11.23;4.80;;;20.30;67.60;;;;;;5039491;28;20063;-74
2023/07/08 02:40:24;;;;;;;10.38;4.75;;;20.30;67.80;;;;;;5035718;28;20525;-76
2023/07/08 02:42:49;;;;;;;12.50;5.30;;;20.30;68.10;;;;;;5036053;28;20029;-76
2023/07/08 02:45:16;;;;;;;9.45;4.60;;;20.30;68.30;;;;;;5035681;28;20025;-76
2023/07/08 02:47:42;;;;;;;11.90;5.55;;;20.30;68.60;;;;;;5034151;28;20032;-76
2023/07/08 02:50:09;;;;;;;10.68;5.25;;;20.30;69.00;;;;;;5043601;28;20021;-77
2023/07/08 02:52:35;;;;;;;14.77;5.22;;;20.30;69.10;;;;;;5039349;28;20040;-84
2023/07/08 02:55:01;;;;;;;13.07;5.45;;;20.20;69.80;;;;;;5018338;28;20026;-83
2023/07/08 02:57:27;;;;;;;8.75;5.50;;;20.00;72.70;;;;;;5019443;28;20489;-81
2023/07/08 02:59:52;;;;;;;13.55;5.60;;;19.80;77.50;;;;;;5036561;28;20064;-83
2023/07/08 03:02:18;;;;;;;16.40;6.53;;;19.50;80.00;;;;;;5025241;28;20018;-84
2023/07/08 03:04:44;;;;;;;13.27;5.72;;;19.30;80.00;;;;;;5020813;28;20021;-83
2023/07/08 03:07:11;;;;;;;13.45;5.75;;;19.40;82.90;;;;;;5036874;28;20021;-85
2023/07/08 03:09:38;;;;;;;18.42;6.55;;;19.40;83.40;;;;;;5037896;28;20393;-82
2023/07/08 03:12:06;;;;;;;20.88;6.55;;;19.40;84.50;;;;;;5036912;28;20079;-83
2023/07/08 03:14:31;;;;;;;18.90;6.28;;;19.30;85.10;;;;;;5038822;28;20052;-83
2023/07/08 03:16:57;;;;;;;16.58;5.30;;;19.30;86.00;;;;;;5039463;28;20116;-85
2023/07/08 03:19:22;;;;;;;13.98;4.97;;;19.30;87.00;;;;;;5041212;28;20036;-84
2023/07/08 03:21:48;;;;;;;12.60;6.15;;;19.30;86.50;;;;;;5039620;28;20166;-91
2023/07/08 03:24:17;;;;;;;23.60;6.38;;;19.30;87.30;;;;;;5064554;28;20369;-84
2023/07/08 03:26:44;;;;;;;13.03;5.40;;;19.20;87.50;;;;;;5065331;28;20021;-83
2023/07/08 03:29:17;;;;;;;15.70;6.15;;;19.20;89.10;;;;;;5064681;28;20481;-87
2023/07/08 03:31:44;;;;;;;15.60;6.60;;;19.20;89.80;;;;;;5069865;28;20032;-86
2023/07/08 03:34:17;;;;;;;16.08;6.35;;;19.10;90.60;;;;;;5070074;28;20020;-86
2023/07/08 03:36:49;;;;;;;13.93;5.43;;;19.10;90.20;;;;;;5056830;28;20025;-86
2023/07/08 03:39:23;;;;;;;11.35;5.85;;;19.10;90.30;;;;;;5066920;28;20028;-85
2023/07/08 03:41:50;;;;;;;13.18;6.03;;;19.10;90.30;;;;;;5050967;28;20013;-84
2023/07/08 03:44:16;;;;;;;17.30;7.13;;;18.90;90.40;;;;;;5065748;28;20512;-85
2023/07/08 03:46:46;;;;;;;17.30;5.97;;;19.00;90.30;;;;;;5067233;28;20024;-86
2023/07/08 03:49:12;;;;;;;;;;;19.00;90.70;;;;;;5064375;28;20543;-85
2023/07/08 03:51:40;;;;;;;14.00;5.50;;;18.90;91.10;;;;;;5069070;28;19919;-84
2023/07/08 03:54:08;;;;;;;18.85;6.20;;;19.00;91.20;;;;;;5067032;28;20108;-85
2023/07/08 03:56:34;;;;;;;15.98;6.53;;;19.00;91.70;;;;;;5065865;28;20036;-84
2023/07/08 03:59:00;;;;;;;13.30;6.00;;;19.00;92.00;;;;;;5066495;28;20024;-84
2023/07/08 04:01:26;;;;;;;18.58;6.15;;;18.90;92.30;;;;;;5066825;28;20432;-84
2023/07/08 04:03:53;;;;;;;12.45;6.28;;;18.90;92.50;;;;;;5062593;28;20104;-85
2023/07/08 04:06:19;;;;;;;13.95;5.70;;;18.90;92.60;;;;;;5042894;28;20029;-83
2023/07/08 04:08:46;;;;;;;16.92;6.22;;;18.90;92.60;;;;;;5066975;28;20021;-84
2023/07/08 04:11:14;;;;;;;12.65;5.78;;;18.90;92.80;;;;;;5064101;28;20017;-87
2023/07/08 04:13:39;;;;;;;17.52;6.15;;;18.90;93.00;;;;;;5051334;28;20035;-83
2023/07/08 04:16:06;;;;;;;14.82;6.78;;;18.90;93.10;;;;;;5046559;28;20029;-83
2023/07/08 04:18:32;;;;;;;10.48;5.60;;;18.80;93.70;;;;;;5064317;28;20026;-83
2023/07/08 04:20:58;;;;;;;10.88;5.70;;;18.80;93.80;;;;;;5048088;28;20029;-84
2023/07/08 04:23:25;;;;;;;12.63;6.53;;;18.60;94.10;;;;;;5047050;28;20470;-84
2023/07/08 04:25:55;;;;;;;14.35;5.50;;;18.40;94.60;;;;;;5048627;28;20067;-84
2023/07/08 04:28:20;;;;;;;10.65;5.38;;;18.30;94.70;;;;;;5046967;28;20116;-84
2023/07/08 04:30:47;;;;;;;12.73;6.07;;;18.40;94.60;;;;;;5042142;28;20103;-83
2023/07/08 04:33:14;;;;;;;13.77;5.38;;;18.60;94.00;;;;;;5047858;28;20049;-84
2023/07/08 04:35:41;;;;;;;10.88;5.85;;;18.70;93.20;;;;;;5046835;28;20038;-84
2023/07/08 04:38:14;;;;;;;8.82;4.90;;;18.70;93.10;;;;;;5042970;28;20053;-84
2023/07/08 04:40:40;;;;;;;11.15;5.60;;;18.80;93.70;;;;;;5045463;28;20111;-84
2023/07/08 04:43:12;;;;;;;11.45;5.82;;;18.70;93.60;;;;;;5040912;28;20041;-84
2023/07/08 04:45:44;;;;;;;15.40;6.05;;;18.70;93.80;;;;;;5040144;28;20028;-84
2023/07/08 04:48:18;;;;;;;14.05;6.22;;;18.80;94.10;;;;;;5039623;28;20032;-84
2023/07/08 04:50:46;;;;;;;13.52;6.03;;;18.80;94.20;;;;;;5040898;28;20024;-84
2023/07/08 04:53:13;;;;;;;15.15;6.85;;;18.80;94.50;;;;;;5038149;28;20028;-84
2023/07/08 04:55:44;;;;;;;14.52;6.53;;;18.50;94.80;;;;;;5048645;28;20031;-84
2023/07/08 04:58:10;;;;;;;16.90;7.30;;;18.20;95.90;;;;;;5038025;28;20032;-84
2023/07/08 05:00:36;;;;;;;16.02;6.03;;;18.50;94.90;;;;;;5045308;28;20028;-83
2023/07/08 05:03:01;;;;;;;12.90;6.18;;;18.50;94.20;;;;;;5036731;28;20429;-84
2023/07/08 05:05:27;;;;;;;13.60;5.38;;;18.50;93.80;;;;;;5041140;28;20028;-84
2023/07/08 05:07:53;;;;;;;12.05;5.38;;;18.50;93.20;;;;;;5042845;28;20030;-84
2023/07/08 05:10:19;;;;;;;11.13;5.68;;;18.50;93.40;;;;;;5038209;28;20537;-84
2023/07/08 05:12:46;;;;;;;11.75;5.53;;;18.60;93.20;;;;;;5044014;28;20030;-85
2023/07/08 05:15:12;;;;;;;14.10;5.68;;;18.70;93.40;;;;;;5043327;28;20037;-84
2023/07/08 05:17:39;;;;;;;13.52;5.55;;;18.70;93.40;;;;;;5049841;28;20430;-88
2023/07/08 05:20:07;;;;;;;10.88;5.53;;;18.60;94.00;;;;;;5048795;28;20196;-85
2023/07/08 05:22:33;;;;;;;12.57;5.82;;;18.70;94.40;;;;;;5043999;28;20040;-84
2023/07/08 05:24:58;;;;;;;13.82;6.45;;;18.60;93.70;;;;;;5045883;28;20025;-86
2023/07/08 05:27:25;;;;;;;13.73;6.43;;;18.60;93.90;;;;;;5038788;28;20033;-85
2023/07/08 05:29:51;;;;;;;10.38;5.32;;;18.70;94.20;;;;;;5047085;28;20025;-85
2023/07/08 05:32:17;;;;;;;13.63;5.80;;;18.70;93.80;;;;;;5037451;28;20596;-86
2023/07/08 05:34:46;;;;;;;12.27;6.07;;;18.60;93.80;;;;;;5045803;28;20455;-84
2023/07/08 05:37:13;;;;;;;10.07;5.20;;;18.70;94.10;;;;;;5041536;28;20025;-86
2023/07/08 05:39:39;;;;;;;15.98;6.43;;;18.70;94.20;;;;;;5042926;28;20016;-86
2023/07/08 05:42:05;;;;;;;15.88;6.10;;;18.70;94.30;;;;;;5050776;28;20058;-85
2023/07/08 05:44:31;;;;;;;12.82;6.03;;;18.70;94.00;;;;;;5038573;28;20111;-86
2023/07/08 05:46:56;;;;;;;13.73;6.38;;;18.80;93.80;;;;;;5044695;28;20029;-86
2023/07/08 05:49:22;;;;;;;11.20;5.68;;;18.80;94.30;;;;;;5039774;28;20031;-87
2023/07/08 05:51:48;;;;;;;12.70;6.45;;;18.90;94.20;;;;;;5048359;28;20063;-86
2023/07/08 05:54:14;;;;;;;12.80;6.38;;;18.90;94.20;;;;;;5041865;28;20021;-87
2023/07/08 05:56:40;;;;;;;12.18;6.45;;;18.90;94.10;;;;;;5041091;28;20119;-87
2023/07/08 05:59:06;;;;;;;13.02;6.43;;;18.90;94.10;;;;;;5050664;28;20017;-87
2023/07/08 06:01:32;;;;;;;12.48;6.40;;;18.80;94.20;;;;;;5043381;28;20023;-86
2023/07/08 06:04:01;;;;;;;14.60;7.35;;;18.90;94.20;;;;;;5048710;28;20111;-87
2023/07/08 06:06:27;;;;;;;15.27;5.78;;;18.90;94.30;;;;;;5049241;28;20028;-87
2023/07/08 06:08:54;;;;;;;14.95;6.25;;;19.00;94.50;;;;;;5049206;28;20033;-88
2023/07/08 06:11:19;;;;;;;13.30;6.32;;;19.00;94.50;;;;;;5045786;28;20035;-88
2023/07/08 06:13:45;;;;;;;11.40;6.22;;;19.00;94.80;;;;;;5049378;28;20025;-88
2023/07/08 06:16:11;;;;;;;17.67;6.03;;;18.90;94.60;;;;;;5046453;28;20119;-88
2023/07/08 06:18:37;;;;;;;18.17;7.28;;;19.00;94.90;;;;;;5041430;28;20082;-86
2023/07/08 06:21:02;;;;;;;15.60;6.90;;;19.00;95.20;;;;;;5039436;28;20021;-89
2023/07/08 06:23:29;;;;;;;13.18;5.68;;;19.00;95.10;;;;;;5046060;28;20023;-91
2023/07/08 06:25:55;;;;;;;14.52;6.60;;;19.20;94.60;;;;;;5045227;28;20025;-91
2023/07/08 06:28:21;;;;;;;13.65;5.75;;;19.30;94.10;;;;;;5044345;28;20029;-83
2023/07/08 06:30:47;;;;;;;11.90;5.85;;;19.40;93.80;;;;;;5044587;28;20025;-93
2023/07/08 06:33:13;;;;;;;11.68;5.85;;;19.50;93.60;;;;;;5045278;28;20109;-91
2023/07/08 06:35:40;;;;;;;12.98;5.88;;;19.50;93.40;;;;;;5045584;28;20556;-89
2023/07/08 06:38:06;;;;;;;12.43;6.53;;;19.50;93.20;;;;;;5047758;28;20017;-88
2023/07/08 06:40:33;;;;;;;12.40;6.10;;;19.60;93.10;;;;;;5043144;28;20021;-90
2023/07/08 06:42:59;;;;;;;13.35;6.72;;;19.60;93.00;;;;;;5039359;28;20020;-89
2023/07/08 06:45:24;;;;;;;14.13;5.75;;;19.60;92.90;;;;;;5046359;28;20047;-90
2023/07/08 06:47:53;;;;;;;20.17;6.38;;;19.60;92.80;;;;;;5034964;28;20545;-90
2023/07/08 06:50:19;;;;;;;12.82;5.55;;;19.60;92.70;;;;;;5047824;28;20021;-92
2023/07/08 06:52:44;;;;;;;13.98;6.82;;;19.60;92.60;;;;;;5038549;28;20087;-85
2023/07/08 06:55:11;;;;;;;17.23;6.45;;;19.70;92.50;;;;;;5052171;28;20040;-90
2023/07/08 06:57:39;;;;;;;11.63;6.10;;;19.70;92.50;;;;;;5042342;28;20025;-89
2023/07/08 07:00:10;;;;;;;11.45;5.82;;;19.70;92.50;;;;;;5041821;28;20032;-90
2023/07/08 07:02:40;;;;;;;14.57;5.43;;;19.70;92.30;;;;;;5048248;28;20014;-88
2023/07/08 07:05:06;;;;;;;10.88;5.90;;;19.90;92.40;;;;;;5042731;28;20017;-86
2023/07/08 07:07:31;;;;;;;12.35;5.53;;;19.70;92.30;;;;;;5052784;28;20033;-87
2023/07/08 07:09:57;;;;;;;12.90;6.07;;;19.70;92.20;;;;;;5044210;28;20376;-86
2023/07/08 07:12:26;;;;;;;14.02;5.95;;;19.70;92.20;;;;;;5045710;28;20688;-89
2023/07/08 07:14:53;;;;;;;12.52;6.53;;;19.80;92.20;;;;;;5047123;28;20025;-89
2023/07/08 07:17:23;;;;;;;10.82;5.88;;;19.80;92.10;;;;;;5046838;28;20099;-89
2023/07/08 07:19:48;;;;;;;11.65;6.40;;;19.80;91.90;;;;;;5047626;28;20022;-83
2023/07/08 07:22:15;;;;;;;12.70;5.43;;;19.80;92.10;;;;;;5047862;28;20054;-92
2023/07/08 07:24:40;;;;;;;15.68;5.47;;;19.80;92.00;;;;;;5045629;28;20017;-89
2023/07/08 07:27:07;;;;;;;13.68;6.25;;;19.80;92.00;;;;;;5049642;28;20020;-88
2023/07/08 07:29:47;;;;;;;14.45;5.80;;;19.80;92.00;;;;;;5064967;28;20029;-88
2023/07/08 07:32:15;;;;;;;14.27;6.25;;;19.80;91.90;;;;;;5064023;28;20013;-89
2023/07/08 07:34:41;;;;;;;12.45;4.93;;;19.80;92.10;;;;;;5048536;28;20027;-88
2023/07/08 07:37:12;;;;;;;9.45;4.63;;;19.80;92.10;;;;;;5064481;28;20016;-89
2023/07/08 07:39:37;;;;;;;14.77;5.68;;;19.90;92.20;;;;;;5057910;28;20049;-88
2023/07/08 07:42:03;;;;;;;11.15;5.18;;;19.80;92.30;;;;;;5060452;28;20052;-90
2023/07/08 07:44:29;;;;;;;12.13;5.65;;;19.90;92.40;;;;;;5063593;28;20099;-88
2023/07/08 07:46:54;;;;;;;11.80;6.13;;;19.80;92.30;;;;;;5067266;28;20103;-83
2023/07/08 07:49:21;;;;;;;14.18;5.70;;;19.90;92.30;;;;;;5063636;28;20147;-87
2023/07/08 07:51:47;;;;;;;17.77;5.93;;;19.90;92.00;;;;;;5045681;28;20048;-90
2023/07/08 07:54:12;;;;;;;15.38;6.25;;;19.90;92.20;;;;;;5040418;28;20023;-92
2023/07/08 07:56:38;;;;;;;11.10;5.50;;;19.80;92.30;;;;;;5035714;28;20028;-90
2023/07/08 07:59:04;;;;;;;10.93;6.18;;;19.90;92.20;;;;;;5062100;28;20024;-88
2023/07/08 08:01:30;;;;;;;10.80;5.97;;;19.90;91.80;;;;;;5059095;28;20013;-88
2023/07/08 08:03:55;;;;;;;13.10;5.90;;;19.90;91.70;;;;;;5065210;28;20029;-88
2023/07/08 08:06:21;;;;;;;11.10;5.85;;;19.90;91.50;;;;;;5068399;28;20027;-87
2023/07/08 08:08:47;;;;;;;11.82;4.70;;;19.90;91.70;;;;;;5058766;28;20050;-87
2023/07/08 08:11:13;;;;;;;10.73;5.18;;;19.90;91.90;;;;;;5035018;28;20517;-83
2023/07/08 08:13:39;;;;;;;11.48;5.25;;;19.90;92.10;;;;;;5060139;28;20163;-89
2023/07/08 08:16:04;;;;;;;14.90;5.80;;;20.00;91.80;;;;;;5055768;28;20025;-86
2023/07/08 08:18:30;;;;;;;15.45;6.25;;;20.00;91.60;;;;;;5062773;28;20117;-84
2023/07/08 08:20:57;;;;;;;15.40;5.60;;;20.00;91.70;;;;;;5049592;28;20754;-87
2023/07/08 08:23:22;;;;;;;10.25;4.97;;;20.00;91.40;;;;;;5041697;28;20021;-87
2023/07/08 08:25:50;;;;;;;15.48;5.75;;;20.00;92.00;;;;;;5044647;28;20079;-88
2023/07/08 08:28:15;;;;;;;11.88;5.15;;;20.00;92.00;;;;;;5041182;28;20083;-87
2023/07/08 08:30:41;;;;;;;8.40;5.13;;;20.00;91.90;;;;;;5040046;28;20490;-87
2023/07/08 08:33:07;;;;;;;13.48;5.22;;;20.00;91.50;;;;;;5045509;28;20088;-86
2023/07/08 08:35:32;;;;;;;10.57;4.57;;;20.00;91.50;;;;;;5028077;28;20076;-86
2023/07/08 08:37:58;;;;;;;13.48;5.95;;;20.00;91.80;;;;;;5045123;28;20032;-82
2023/07/08 08:40:24;;;;;;;10.40;5.97;;;20.00;91.20;;;;;;5043047;28;20462;-93
2023/07/08 08:42:57;;;;;;;10.23;5.53;;;20.00;92.30;;;;;;5027146;28;20022;-93
2023/07/08 08:45:26;;;;;;;10.00;4.47;;;20.10;92.40;;;;;;5031790;28;20024;-93
2023/07/08 08:47:58;;;;;;;8.52;4.80;;;20.10;94.00;;;;;;5030479;28;20366;-93
2023/07/08 08:50:28;;;;;;;10.68;5.13;;;20.20;93.40;;;;;;5027856;28;20036;-93
2023/07/08 08:52:55;;;;;;;10.27;5.18;;;20.20;93.60;;;;;;5029866;28;20029;-92
2023/07/08 08:55:24;;;;;;;14.93;5.22;;;20.20;91.30;;;;;;5035789;28;20029;-90
2023/07/08 08:58:17;;;;;;;11.25;4.97;;;20.20;91.50;;;;;;5027920;28;20029;-91
2023/07/08 09:00:57;;;;;;;12.00;5.22;;;20.20;91.50;;;;;;5040891;28;20017;-90
2023/07/08 09:03:41;;;;;;;15.23;5.57;;;20.30;91.40;;;;;;5023730;28;20025;-92
2023/07/08 09:06:14;;;;;;;15.52;5.03;;;20.30;91.00;;;;;;5031609;28;20108;-92
2023/07/08 09:08:43;;;;;;;9.90;4.78;;;20.30;91.00;;;;;;5029115;28;20052;-91
2023/07/08 09:11:47;;;;;;;20.52;4.63;;;20.30;91.20;;;;;;5028872;28;20478;-91
2023/07/08 09:14:23;;;;;;;10.13;4.65;;;20.40;90.70;;;;;;5016894;28;20029;-93
2023/07/08 09:17:07;;;;;;;11.05;4.35;;;20.30;91.50;;;;;;5024890;28;20068;-92
2023/07/08 09:19:37;;;;;;;9.10;5.40;;;20.30;90.90;;;;;;5047313;28;20028;-92
2023/07/08 09:22:09;;;;;;;10.32;5.28;;;20.40;92.10;;;;;;5023168;28;20108;-92
2023/07/08 09:24:45;;;;;;;11.50;5.82;;;20.30;92.00;;;;;;5030986;28;20032;-92
2023/07/08 09:27:11;;;;;;;10.80;4.10;;;20.30;92.30;;;;;;5032409;28;20020;-93
2023/07/08 09:29:37;;;;;;;15.15;5.07;;;20.30;92.10;;;;;;5032846;28;20068;-93
2023/07/08 09:32:17;;;;;;;10.05;5.28;;;20.30;91.70;;;;;;5032227;28;20021;-92
2023/07/08 09:35:02;;;;;;;14.02;6.03;;;20.30;92.30;;;;;;5030189;28;20020;-91
2023/07/08 09:37:35;;;;;;;11.10;5.25;;;20.30;92.40;;;;;;5028461;28;20021;-92
2023/07/08 09:40:14;;;;;;;9.07;4.63;;;20.30;93.20;;;;;;5029534;28;20032;-90
2023/07/08 09:42:42;;;;;;;11.30;4.75;;;20.30;93.20;;;;;;5023377;28;20021;-91
2023/07/08 09:45:15;;;;;;;10.05;5.30;;;20.30;92.10;;;;;;5025243;28;20017;-92
2023/07/08 09:47:43;;;;;;;14.00;5.30;;;20.30;92.20;;;;;;5026076;28;20092;-92
2023/07/08 09:50:35;;;;;;;15.98;5.97;;;20.30;92.50;;;;;;5021695;28;20029;-91
2023/07/08 09:53:01;;;;;;;13.10;5.38;;;20.20;92.60;;;;;;5022780;28;20029;-91
2023/07/08 09:55:28;;;;;;;15.25;5.57;;;20.20;92.50;;;;;;5044995;28;20029;-88
2023/07/08 09:57:57;;;;;;;13.07;5.25;;;20.20;92.40;;;;;;5030074;28;20021;-91
2023/07/08 10:00:48;;;;;;;14.33;5.47;;;20.20;92.00;;;;;;5029855;28;20043;-91
2023/07/08 10:03:21;;;;;;;11.98;4.97;;;20.30;92.10;;;;;;5027007;28;20033;-91
2023/07/08 10:05:49;;;;;;;9.65;4.95;;;20.30;91.90;;;;;;5031464;28;20017;-91
2023/07/08 10:08:22;;;;;;;9.93;4.57;;;20.30;92.10;;;;;;5025813;28;20589;-92
2023/07/08 10:11:03;;;;;;;12.18;5.22;;;20.30;92.30;;;;;;5029837;28;20124;-91
2023/07/08 10:13:34;;;;;;;13.63;4.93;;;20.40;92.40;;;;;;5042768;28;20021;-92
2023/07/08 10:16:13;;;;;;;15.82;4.32;;;20.50;92.10;;;;;;5023588;28;20033;-90
2023/07/08 10:18:39;;;;;;;9.68;3.83;;;20.60;91.10;;;;;;5024367;28;20108;-89
2023/07/08 10:21:13;;;;;;;11.52;4.07;;;20.80;90.70;;;;;;5042167;28;20060;-90
2023/07/08 10:23:51;;;;;;;11.00;3.53;;;20.80;90.70;;;;;;5050563;28;20025;-90
2023/07/08 10:26:26;;;;;;;7.70;3.97;;;20.90;86.50;;;;;;5051527;28;20017;-91
2023/07/08 10:28:58;;;;;;;6.35;3.05;;;20.90;88.80;;;;;;5051329;28;20082;-90
2023/07/08 10:31:32;;;;;;;8.48;3.45;;;21.00;86.80;;;;;;5046159;28;20029;-92
2023/07/08 10:34:01;;;;;;;8.57;2.75;;;21.00;88.10;;;;;;5048698;28;20029;-92
2023/07/08 10:36:44;;;;;;;5.57;3.13;;;21.10;87.80;;;;;;5050238;28;20460;-94
2023/07/08 10:39:35;;;;;;;7.28;3.22;;;21.30;85.80;;;;;;5059774;28;20055;-90
2023/07/08 10:42:46;;;;;;;5.63;1.92;;;21.40;82.60;;;;;;5049111;28;20021;-91
2023/07/08 10:45:18;;;;;;;7.18;2.88;;;21.40;82.60;;;;;;5013862;28;20052;-90
2023/07/08 10:48:09;;;;;;;13.55;3.33;;;21.50;81.00;;;;;;5041028;28;20029;-90
2023/07/08 10:51:12;;;;;;;11.73;3.45;;;21.40;83.00;;;;;;5044912;28;20025;-89
2023/07/08 10:54:15;;;;;;;5.30;3.03;;;21.50;83.10;;;;;;5045291;28;20025;-90
2023/07/08 10:56:58;;;;;;;33.90;15.70;;;21.70;84.10;;;;;;5056865;28;20045;-88
2023/07/08 10:59:44;;;;;;;15.27;3.53;;;21.60;85.70;;;;;;5043937;28;20075;-90
2023/07/08 11:02:39;;;;;;;9.00;4.15;;;21.60;86.60;;;;;;5037936;28;20023;-90
2023/07/08 11:05:34;;;;;;;7.95;3.03;;;21.60;88.50;;;;;;5061953;28;20052;-88
2023/07/08 11:08:35;;;;;;;7.70;3.22;;;21.60;86.30;;;;;;5055208;28;20051;-89
2023/07/08 11:11:03;;;;;;;28.77;13.35;;;21.50;85.40;;;;;;5038545;28;20050;-91
2023/07/08 11:13:33;;;;;;;8.32;3.40;;;21.50;89.40;;;;;;5055542;28;20082;-90
2023/07/08 11:15:58;;;;;;;7.80;3.25;;;21.70;85.70;;;;;;5041228;28;20052;-89
2023/07/08 11:18:54;;;;;;;13.82;7.03;;;21.80;86.70;;;;;;5044071;28;20064;-89
2023/07/08 11:21:35;;;;;;;5.22;3.15;;;21.80;85.40;;;;;;5043946;28;20021;-90
2023/07/08 11:24:30;;;;;;;8.48;3.13;;;21.80;86.40;;;;;;5050397;28;20025;-90
2023/07/08 11:27:01;;;;;;;4.82;2.80;;;21.80;85.90;;;;;;5035887;28;20029;-90
2023/07/08 11:29:45;;;;;;;4.40;2.72;;;21.80;86.30;;;;;;5039245;28;20036;-90
2023/07/08 11:32:18;;;;;;;6.60;3.17;;;21.90;85.20;;;;;;5045699;28;20029;-89
2023/07/08 11:34:48;;;;;;;7.85;3.17;;;21.90;85.70;;;;;;5037480;28;20025;-89
2023/07/08 11:37:15;;;;;;;5.70;3.20;;;21.90;84.30;;;;;;5048638;28;20024;-89
2023/07/08 11:39:46;;;;;;;5.70;3.00;;;21.90;83.60;;;;;;5037105;28;20163;-90
2023/07/08 11:42:42;;;;;;;5.85;2.58;;;21.80;84.10;;;;;;5038195;28;20367;-91
2023/07/08 11:45:14;;;;;;;6.18;2.47;;;21.90;83.60;;;;;;5043674;28;20025;-90
2023/07/08 11:47:48;;;;;;;7.93;3.13;;;21.90;82.80;;;;;;5049696;28;20501;-90
2023/07/08 11:50:20;;;;;;;4.70;2.67;;;22.10;84.40;;;;;;5044763;28;20059;-90
2023/07/08 11:52:59;;;;;;;6.97;2.85;;;22.30;82.90;;;;;;5054942;28;20111;-93
2023/07/08 11:55:36;;;;;;;6.55;2.85;;;22.40;87.70;;;;;;5048730;28;20033;-92
2023/07/08 11:58:07;;;;;;;5.10;2.35;;;22.60;81.60;;;;;;5052022;28;21176;-90
2023/07/08 12:00:34;;;;;;;12.90;3.00;;;22.60;82.90;;;;;;5041564;28;20021;-93
2023/07/08 12:03:18;;;;;;;7.38;2.60;;;22.60;80.80;;;;;;5044298;28;20112;-90
2023/07/08 12:05:43;;;;;;;5.07;2.65;;;22.60;81.00;;;;;;5046567;28;20032;-90
2023/07/08 12:08:14;;;;;;;4.50;2.33;;;22.50;78.40;;;;;;5051606;28;20025;-91
2023/07/08 12:10:49;;;;;;;8.25;3.22;;;22.70;77.90;;;;;;5046659;28;20116;-91
2023/07/08 12:13:27;;;;;;;12.32;3.20;;;22.70;78.60;;;;;;5052787;28;20020;-92
2023/07/08 12:15:53;;;;;;;6.53;3.28;;;22.60;80.30;;;;;;5033276;28;20025;-91
2023/07/08 12:18:24;;;;;;;10.80;3.50;;;22.60;80.00;;;;;;5047936;28;20033;-89
2023/07/08 12:20:57;;;;;;;5.50;2.85;;;22.50;79.90;;;;;;5045552;28;20029;-90
2023/07/08 12:23:25;;;;;;;5.63;2.33;;;22.50;80.50;;;;;;5041888;28;20025;-90
2023/07/08 12:25:52;;;;;;;7.10;2.30;;;22.70;81.10;;;;;;5046708;28;20481;-92
2023/07/08 12:28:19;;;;;;;5.18;2.40;;;22.70;83.50;;;;;;5050862;28;20086;-91
2023/07/08 12:30:46;;;;;;;6.22;2.55;;;22.90;82.80;;;;;;5042509;28;20033;-90
2023/07/08 12:33:26;;;;;;;7.75;2.83;;;23.00;82.10;;;;;;5048581;28;20036;-90
2023/07/08 12:35:52;;;;;;;3.28;2.25;;;23.00;82.50;;;;;;5060295;28;20035;-90
2023/07/08 12:38:30;;;;;;;6.35;3.05;;;23.00;82.10;;;;;;5047799;28;20032;-90
2023/07/08 12:41:05;;;;;;;5.40;2.50;;;23.00;78.50;;;;;;5047643;28;20021;-92
2023/07/08 12:43:31;;;;;;;7.95;3.50;;;22.90;79.80;;;;;;5047587;28;20122;-89
2023/07/08 12:45:57;;;;;;;8.82;2.80;;;23.00;80.20;;;;;;5046321;28;20049;-93
2023/07/08 12:48:22;;;;;;;4.43;2.63;;;23.10;77.30;;;;;;5045738;28;20060;-92
2023/07/08 12:50:50;;;;;;;5.18;2.38;;;23.00;80.40;;;;;;5052516;28;20021;-90
2023/07/08 12:53:15;;;;;;;6.13;2.30;;;23.20;81.30;;;;;;5043646;28;20029;-90
2023/07/08 12:55:44;;;;;;;4.75;2.35;;;23.40;83.50;;;;;;5043519;28;20041;-89